createdAt,value
2019-05-13T00:01:07.076Z,88.60
2019-05-13T00:03:36.153Z,88.83
2019-05-13T00:06:05.927Z,89.07
2019-05-13T00:08:35.280Z,89.49
2019-05-13T00:11:04.708Z,89.96
2019-05-13T00:13:34.383Z,90.09
2019-05-13T00:16:07.949Z,90.47
2019-05-13T00:18:37.374Z,90.49
2019-05-13T00:21:06.759Z,90.26
2019-05-13T00:23:36.109Z,90.20
2019-05-13T00:26:05.479Z,90.41
2019-05-13T00:28:37.248Z,90.69
2019-05-13T00:31:06.642Z,90.76
2019-05-13T00:33:36.034Z,91.12
2019-05-13T00:36:05.558Z,91.27
2019-05-13T00:38:34.999Z,91.41
2019-05-13T00:41:04.334Z,91.56
2019-05-13T00:43:34.122Z,91.69
2019-05-13T00:46:04.049Z,91.79
2019-05-13T00:48:33.755Z,92.35
2019-05-13T00:51:03.937Z,92.57
2019-05-13T00:53:35.392Z,92.51
2019-05-13T00:56:05.841Z,92.73
2019-05-13T00:58:35.361Z,92.71
2019-05-13T01:01:04.745Z,92.78
2019-05-13T01:03:34.097Z,93.03
2019-05-13T01:06:04.258Z,93.11
2019-05-13T01:08:34.416Z,93.11
2019-05-13T01:11:04.362Z,93.18
2019-05-13T01:13:34.334Z,93.42
2019-05-13T01:16:04.254Z,93.40
2019-05-13T01:18:34.174Z,93.42
2019-05-13T01:21:04.455Z,93.57
2019-05-13T01:23:35.026Z,93.67
2019-05-13T01:26:04.364Z,93.83
2019-05-13T01:28:34.441Z,94.01
2019-05-13T01:31:04.379Z,94.17
2019-05-13T01:33:35.084Z,94.25
2019-05-13T01:36:05.484Z,94.37
2019-05-13T01:38:34.871Z,94.46
2019-05-13T01:41:04.661Z,94.56
2019-05-13T01:43:34.067Z,94.72
2019-05-13T01:46:04.410Z,94.82
2019-05-13T01:48:34.211Z,95.00
2019-05-13T01:51:04.139Z,95.28
2019-05-13T01:53:33.813Z,95.19
2019-05-13T01:56:04.057Z,95.16
2019-05-13T01:58:34.132Z,95.27
2019-05-13T02:01:04.977Z,95.41
2019-05-13T02:03:34.668Z,95.54
2019-05-13T02:06:04.048Z,95.59
2019-05-13T02:08:33.820Z,95.64
2019-05-13T02:11:04.453Z,95.76
2019-05-13T02:13:34.548Z,95.87
2019-05-13T02:16:04.451Z,96.23
2019-05-13T02:18:34.385Z,97.13
2019-05-13T02:21:05.559Z,97.28
2019-05-13T02:23:35.151Z,97.50
2019-05-13T02:26:07.637Z,97.25
2019-05-13T02:28:36.984Z,96.84
2019-05-13T02:31:06.411Z,96.94
2019-05-13T02:33:35.895Z,96.60
2019-05-13T02:36:05.284Z,97.04
2019-05-13T02:38:35.905Z,97.31
2019-05-13T02:41:05.459Z,97.24
2019-05-13T02:43:34.939Z,97.32
2019-05-13T02:46:04.716Z,97.42
2019-05-13T02:48:37.393Z,96.99
2019-05-13T02:51:06.836Z,97.00
2019-05-13T02:53:36.285Z,97.23
2019-05-13T02:56:05.903Z,97.91
2019-05-13T02:58:35.338Z,98.22
2019-05-13T03:01:04.813Z,98.32
2019-05-13T03:03:34.230Z,98.23
2019-05-13T03:06:03.690Z,98.35
2019-05-13T03:08:41.030Z,98.35
2019-05-13T03:11:04.179Z,98.11
2019-05-13T03:13:33.675Z,98.36
2019-05-13T03:16:15.073Z,97.74
2019-05-13T03:18:44.407Z,97.49
2019-05-13T03:21:13.789Z,97.33
2019-05-13T03:23:44.689Z,97.51
2019-05-13T03:26:14.253Z,98.11
2019-05-13T03:28:44.205Z,98.46
2019-05-13T03:31:17.012Z,99.10
2019-05-13T03:33:47.032Z,98.78
2019-05-13T03:36:17.893Z,98.57
2019-05-13T03:39:01.503Z,98.83
2019-05-13T03:41:22.593Z,99.20
2019-05-13T03:43:53.260Z,99.43
2019-05-13T03:46:24.145Z,99.66
2019-05-13T03:48:56.819Z,99.69
2019-05-13T03:51:26.788Z,99.53
2019-05-13T03:53:56.198Z,99.35
2019-05-13T03:56:25.960Z,99.56
2019-05-13T03:58:55.477Z,99.83
2019-05-13T04:01:25.330Z,99.95
2019-05-13T04:03:54.819Z,100.00
2019-05-13T04:06:24.330Z,100.00
2019-05-13T04:08:54.236Z,100.00
2019-05-13T04:11:24.232Z,100.00
2019-05-13T04:13:53.857Z,100.00
2019-05-13T04:16:24.014Z,100.00
2019-05-13T04:18:55.535Z,100.00
2019-05-13T04:21:24.922Z,100.00
2019-05-13T04:23:54.380Z,100.00
2019-05-13T04:26:24.130Z,100.00
2019-05-13T04:28:53.805Z,100.00
2019-05-13T04:31:23.407Z,100.00
2019-05-13T04:33:53.603Z,100.00
2019-05-13T04:36:23.871Z,100.00
2019-05-13T04:38:53.623Z,100.00
2019-05-13T04:41:23.541Z,100.00
2019-05-13T04:43:54.174Z,100.00
2019-05-13T04:46:24.320Z,100.00
2019-05-13T04:48:53.703Z,100.00
2019-05-13T04:51:23.500Z,100.00
2019-05-13T04:53:56.924Z,100.00
2019-05-13T04:56:24.277Z,100.00
2019-05-13T04:58:53.746Z,100.00
2019-05-13T05:02:05.003Z,100.00
2019-05-13T05:04:52.454Z,100.00
2019-05-13T05:07:32.775Z,100.00
2019-05-13T05:10:30.248Z,100.00
2019-05-13T05:13:26.738Z,100.00
2019-05-13T05:16:27.086Z,100.00
2019-05-13T05:19:32.762Z,100.00
2019-05-13T05:22:27.524Z,100.00
2019-05-13T05:25:29.259Z,100.00
2019-05-13T05:28:12.612Z,100.00
2019-05-13T05:31:02.347Z,100.00
2019-05-13T05:34:21.972Z,100.00
2019-05-13T05:37:16.814Z,100.00
2019-05-13T05:39:48.032Z,100.00
2019-05-13T05:42:18.807Z,100.00
2019-05-13T05:44:48.430Z,100.00
2019-05-13T05:47:18.299Z,100.00
2019-05-13T05:49:48.952Z,100.00
2019-05-13T05:52:21.087Z,100.00
2019-05-13T05:54:51.768Z,100.00
2019-05-13T05:57:22.548Z,100.00
2019-05-13T05:59:52.938Z,100.00
2019-05-13T06:02:25.681Z,99.47
2019-05-13T06:04:56.023Z,99.52
2019-05-13T06:07:26.437Z,99.62
2019-05-13T06:09:55.916Z,99.61
2019-05-13T06:12:25.869Z,99.22
2019-05-13T06:14:55.580Z,98.96
2019-05-13T06:17:24.986Z,98.51
2019-05-13T06:19:54.431Z,98.45
2019-05-13T06:22:23.868Z,98.13
2019-05-13T06:24:53.537Z,97.34
2019-05-13T06:27:23.252Z,97.37
2019-05-13T06:29:53.097Z,97.01
2019-05-13T06:32:26.216Z,96.29
2019-05-13T06:34:53.842Z,96.04
2019-05-13T06:37:23.329Z,95.87
2019-05-13T06:39:52.798Z,93.49
2019-05-13T06:42:22.415Z,93.34
2019-05-13T06:44:51.769Z,93.07
2019-05-13T06:47:22.088Z,91.21
2019-05-13T06:49:51.783Z,89.59
2019-05-13T06:52:21.395Z,89.72
2019-05-13T06:54:52.010Z,89.19
2019-05-13T06:57:22.116Z,89.12
2019-05-13T06:59:52.549Z,86.71
2019-05-13T07:02:22.433Z,85.68
2019-05-13T07:04:51.910Z,85.39
2019-05-13T07:07:22.048Z,83.48
2019-05-13T07:09:51.967Z,83.38
2019-05-13T07:12:22.048Z,82.90
2019-05-13T07:14:52.043Z,82.40
2019-05-13T07:17:22.288Z,81.61
2019-05-13T07:19:52.120Z,82.15
2019-05-13T07:22:23.028Z,80.87
2019-05-13T07:24:52.746Z,80.78
2019-05-13T07:27:22.921Z,79.54
2019-05-13T07:29:55.536Z,79.73
2019-05-13T07:32:23.825Z,79.69
2019-05-13T07:34:53.556Z,79.01
2019-05-13T07:37:23.639Z,78.75
2019-05-13T07:39:53.331Z,78.55
2019-05-13T07:42:22.948Z,78.47
2019-05-13T07:44:52.528Z,77.76
2019-05-13T07:47:23.354Z,77.80
2019-05-13T07:49:52.943Z,76.91
2019-05-13T07:52:22.914Z,76.76
2019-05-13T07:54:52.464Z,75.91
2019-05-13T07:57:21.918Z,76.05
2019-05-13T07:59:52.392Z,75.80
2019-05-13T08:02:22.060Z,75.52
2019-05-13T08:04:53.036Z,74.91
2019-05-13T08:07:22.874Z,75.00
2019-05-13T08:09:56.025Z,74.06
2019-05-13T08:12:23.470Z,70.56
2019-05-13T08:14:54.075Z,71.40
2019-05-13T08:17:23.465Z,71.43
2019-05-13T08:19:52.908Z,70.01
2019-05-13T08:22:22.486Z,68.02
2019-05-13T08:24:54.258Z,67.99
2019-05-13T08:27:30.202Z,67.82
2019-05-13T08:29:54.267Z,68.49
2019-05-13T08:32:23.815Z,67.71
2019-05-13T08:35:01.446Z,67.46
2019-05-13T08:37:24.539Z,66.82
2019-05-13T08:39:53.912Z,66.79
2019-05-13T08:42:23.839Z,66.65
2019-05-13T08:44:53.589Z,65.18
2019-05-13T08:47:23.128Z,64.68
2019-05-13T08:49:52.498Z,64.54
2019-05-13T08:52:22.099Z,62.25
2019-05-13T08:54:52.396Z,62.61
2019-05-13T08:57:22.347Z,61.63
2019-05-13T08:59:51.875Z,59.63
2019-05-13T09:02:22.134Z,59.17
2019-05-13T09:04:52.023Z,58.30
2019-05-13T09:07:24.330Z,58.10
2019-05-13T09:09:53.205Z,57.08
2019-05-13T09:12:32.086Z,54.28
2019-05-13T09:14:53.931Z,50.72
2019-05-13T09:17:23.410Z,52.50
2019-05-13T09:19:52.787Z,52.83
2019-05-13T09:22:22.319Z,52.70
2019-05-13T09:24:53.061Z,50.95
2019-05-13T09:27:22.794Z,50.75
2019-05-13T09:29:52.184Z,50.77
2019-05-13T09:32:21.780Z,49.36
2019-05-13T09:34:52.424Z,46.59
2019-05-13T09:37:22.715Z,46.33
2019-05-13T09:39:52.225Z,47.57
2019-05-13T09:42:21.834Z,44.56
2019-05-13T09:44:52.474Z,45.17
2019-05-13T09:47:22.366Z,44.93
2019-05-13T09:49:54.376Z,44.28
2019-05-13T09:52:22.860Z,45.46
2019-05-13T09:54:52.531Z,46.22
2019-05-13T09:57:22.222Z,46.40
2019-05-13T09:59:52.414Z,46.19
2019-05-13T10:02:21.981Z,46.01
2019-05-13T10:04:51.683Z,43.71
2019-05-13T10:07:22.970Z,43.03
2019-05-13T10:09:52.361Z,43.24
2019-05-13T10:12:24.298Z,44.33
2019-05-13T10:14:53.062Z,42.87
2019-05-13T10:17:22.503Z,42.77
2019-05-13T10:19:52.293Z,42.78
2019-05-13T10:22:21.959Z,42.97
2019-05-13T10:24:51.725Z,44.23
2019-05-13T10:27:22.348Z,43.38
2019-05-13T10:29:52.280Z,43.23
2019-05-13T10:32:22.163Z,43.34
2019-05-13T10:34:53.791Z,42.99
2019-05-13T10:37:24.189Z,42.94
2019-05-13T10:39:53.686Z,43.22
2019-05-13T10:42:23.279Z,42.66
2019-05-13T10:44:52.981Z,42.35
2019-05-13T10:47:22.950Z,39.21
2019-05-13T10:49:52.722Z,39.11
2019-05-13T10:52:23.072Z,39.76
2019-05-13T10:54:52.855Z,38.54
2019-05-13T10:57:22.634Z,38.41
2019-05-13T10:59:52.923Z,37.36
2019-05-13T11:02:22.445Z,36.83
2019-05-13T11:04:52.726Z,37.25
2019-05-13T11:07:22.644Z,36.38
2019-05-13T11:09:52.874Z,37.37
2019-05-13T11:12:28.090Z,35.94
2019-05-13T11:14:55.339Z,36.22
2019-05-13T11:17:31.158Z,36.78
2019-05-13T11:19:56.031Z,36.31
2019-05-13T11:22:25.603Z,32.24
2019-05-13T11:24:55.010Z,35.28
2019-05-13T11:27:24.537Z,35.05
2019-05-13T11:29:54.115Z,32.49
2019-05-13T11:32:23.636Z,33.15
2019-05-13T11:34:53.352Z,30.45
2019-05-13T11:37:23.373Z,31.63
2019-05-13T11:39:52.878Z,33.13
2019-05-13T11:42:22.914Z,33.67
2019-05-13T11:44:53.160Z,33.09
2019-05-13T11:47:22.879Z,31.60
2019-05-13T11:49:52.554Z,31.88
2019-05-13T11:52:22.746Z,30.98
2019-05-13T11:54:53.762Z,29.53
2019-05-13T11:57:23.699Z,31.49
2019-05-13T11:59:53.487Z,32.87
2019-05-13T12:02:23.320Z,32.28
2019-05-13T12:04:53.756Z,32.60
2019-05-13T12:07:23.726Z,30.09
2019-05-13T12:09:53.255Z,28.17
2019-05-13T12:12:30.154Z,29.49
2019-05-13T12:15:20.276Z,30.27
2019-05-13T12:17:25.278Z,28.67
2019-05-13T12:19:54.860Z,27.63
2019-05-13T12:22:24.360Z,24.70
2019-05-13T12:24:53.903Z,21.08
2019-05-13T12:27:23.663Z,19.87
2019-05-13T12:29:53.304Z,21.22
2019-05-13T12:32:22.803Z,19.68
2019-05-13T12:34:52.874Z,19.90
2019-05-13T12:37:22.401Z,19.68
2019-05-13T12:39:53.074Z,18.45
2019-05-13T12:42:23.223Z,18.85
2019-05-13T12:45:09.036Z,18.92
2019-05-13T12:47:23.846Z,18.13
2019-05-13T12:49:53.370Z,17.65
2019-05-13T12:52:23.237Z,18.11
2019-05-13T12:54:53.224Z,18.03
2019-05-13T12:57:23.326Z,16.71
2019-05-13T12:59:53.029Z,16.05
2019-05-13T13:02:22.799Z,17.44
2019-05-13T13:05:12.096Z,17.23
2019-05-13T13:07:23.436Z,16.04
2019-05-13T13:09:53.924Z,16.52
2019-05-13T13:12:33.873Z,15.62
2019-05-13T13:14:55.083Z,15.88
2019-05-13T13:17:24.529Z,16.26
2019-05-13T13:20:03.148Z,13.01
2019-05-13T13:22:25.700Z,14.60
2019-05-13T13:24:57.501Z,15.56
2019-05-13T13:27:57.746Z,15.57
2019-05-13T13:30:03.412Z,16.46
2019-05-13T13:32:32.202Z,13.77
2019-05-13T13:35:03.428Z,14.40
2019-05-13T13:37:34.816Z,14.76
2019-05-13T13:40:03.386Z,14.02
2019-05-13T13:42:33.447Z,13.93
2019-05-13T13:45:06.038Z,14.63
2019-05-13T13:47:34.273Z,13.71
2019-05-13T13:50:03.736Z,14.85
2019-05-13T13:52:33.723Z,13.94
2019-05-13T13:55:08.241Z,13.82
2019-05-13T13:57:34.433Z,14.94
2019-05-13T14:02:36.822Z,13.67
2019-05-13T14:05:06.925Z,14.12
2019-05-13T14:07:38.788Z,13.52
2019-05-13T14:10:08.441Z,13.17
2019-05-13T14:12:37.852Z,12.62
2019-05-13T14:15:07.276Z,13.02
2019-05-13T14:17:36.679Z,13.84
2019-05-13T14:20:06.628Z,13.80
2019-05-13T14:22:36.034Z,12.76
2019-05-13T14:25:05.787Z,13.05
2019-05-13T14:27:35.323Z,13.67
2019-05-13T14:30:04.996Z,12.63
2019-05-13T14:32:34.415Z,13.50
2019-05-13T14:35:03.899Z,13.03
2019-05-13T14:37:33.331Z,12.00
2019-05-13T14:40:02.866Z,11.10
2019-05-13T14:42:32.399Z,13.46
2019-05-13T14:45:02.226Z,13.87
2019-05-13T14:47:32.184Z,13.21
2019-05-13T14:50:02.278Z,13.53
2019-05-13T14:52:32.372Z,13.20
2019-05-13T14:55:02.314Z,14.21
2019-05-13T14:57:32.311Z,13.52
2019-05-13T15:00:02.520Z,11.96
2019-05-13T15:02:35.816Z,12.59
2019-05-13T15:05:03.421Z,12.59
2019-05-13T15:07:33.002Z,11.80
2019-05-13T15:10:02.647Z,12.61
2019-05-13T15:12:32.488Z,11.11
2019-05-13T15:15:02.111Z,12.25
2019-05-13T15:17:34.689Z,12.92
2019-05-13T15:20:03.145Z,11.01
2019-05-13T15:22:32.757Z,11.72
2019-05-13T15:25:02.878Z,11.12
2019-05-13T15:27:32.577Z,12.22
2019-05-13T15:30:16.819Z,13.39
2019-05-13T15:32:33.193Z,13.18
2019-05-13T15:35:02.558Z,12.31
2019-05-13T15:37:32.311Z,11.76
2019-05-13T15:40:02.434Z,13.32
2019-05-13T15:42:32.135Z,13.62
2019-05-13T15:45:02.148Z,15.00
2019-05-13T15:47:31.947Z,15.87
2019-05-13T15:50:02.433Z,17.40
2019-05-13T15:52:32.192Z,17.03
2019-05-13T15:55:01.636Z,15.72
2019-05-13T15:57:31.909Z,15.10
2019-05-13T16:00:02.078Z,14.21
2019-05-13T16:02:31.821Z,13.41
2019-05-13T16:05:04.720Z,13.77
2019-05-13T16:07:32.543Z,13.81
2019-05-13T16:10:04.238Z,12.99
2019-05-13T16:12:33.240Z,13.66
2019-05-13T16:15:02.694Z,13.71
2019-05-13T16:17:41.157Z,12.80
2019-05-13T16:20:03.806Z,13.32
2019-05-13T16:22:33.264Z,13.80
2019-05-13T16:25:02.725Z,13.59
2019-05-13T16:27:32.392Z,14.42
2019-05-13T16:30:02.556Z,15.45
2019-05-13T16:32:32.257Z,15.10
2019-05-13T16:35:02.719Z,15.64
2019-05-13T16:37:32.528Z,15.84
2019-05-13T16:40:01.941Z,15.85
2019-05-13T16:42:31.943Z,16.40
2019-05-13T16:45:01.630Z,16.89
2019-05-13T16:47:31.861Z,18.17
2019-05-13T16:50:02.770Z,18.49
2019-05-13T16:52:32.508Z,18.74
2019-05-13T16:55:02.696Z,19.45
2019-05-13T16:57:32.443Z,20.87
2019-05-13T17:00:02.420Z,21.20
2019-05-13T17:02:32.169Z,21.87
2019-05-13T17:05:01.607Z,21.91
2019-05-13T17:07:31.769Z,21.37
2019-05-13T17:10:03.753Z,21.23
2019-05-13T17:12:32.843Z,21.93
2019-05-13T17:15:02.403Z,22.46
2019-05-13T17:17:31.888Z,22.43
2019-05-13T17:20:02.459Z,23.11
2019-05-13T17:22:32.044Z,23.06
2019-05-13T17:25:02.497Z,22.37
2019-05-13T17:27:32.272Z,20.45
2019-05-13T17:30:02.224Z,22.90
2019-05-13T17:32:31.859Z,24.24
2019-05-13T17:35:02.192Z,24.87
2019-05-13T17:37:31.894Z,25.48
2019-05-13T17:40:01.576Z,26.27
2019-05-13T17:42:31.984Z,26.73
2019-05-13T17:45:02.366Z,27.08
2019-05-13T17:47:32.147Z,27.31
2019-05-13T17:50:01.631Z,28.08
2019-05-13T17:52:31.170Z,28.62
2019-05-13T17:55:01.119Z,29.57
2019-05-13T17:57:32.063Z,30.51
2019-05-13T18:00:01.959Z,31.00
2019-05-13T18:02:31.522Z,31.78
2019-05-13T18:05:02.120Z,32.39
2019-05-13T18:07:32.223Z,32.41
2019-05-13T18:10:01.966Z,32.99
2019-05-13T18:12:31.550Z,29.45
2019-05-13T18:15:02.433Z,30.35
2019-05-13T18:17:32.130Z,31.38
2019-05-13T18:20:02.533Z,31.74
2019-05-13T18:22:32.235Z,32.67
2019-05-13T18:25:02.552Z,33.67
2019-05-13T18:27:32.500Z,34.56
2019-05-13T18:30:02.295Z,35.22
2019-05-13T18:32:32.137Z,35.81
2019-05-13T18:35:01.951Z,36.67
2019-05-13T18:37:31.713Z,37.54
2019-05-13T18:40:02.501Z,39.33
2019-05-13T18:42:32.231Z,39.33
2019-05-13T18:45:02.291Z,40.50
2019-05-13T18:47:32.005Z,40.79
2019-05-13T18:50:02.324Z,41.65
2019-05-13T18:52:32.128Z,42.42
2019-05-13T18:55:02.196Z,42.92
2019-05-13T18:57:32.022Z,43.26
2019-05-13T19:00:02.200Z,43.54
2019-05-13T19:02:32.151Z,44.36
2019-05-13T19:05:01.858Z,44.67
2019-05-13T19:07:31.685Z,45.17
2019-05-13T19:10:02.487Z,45.73
2019-05-13T19:12:32.125Z,46.45
2019-05-13T19:15:02.402Z,47.27
2019-05-13T19:17:32.401Z,47.81
2019-05-13T19:20:01.983Z,48.70
2019-05-13T19:22:31.760Z,48.98
2019-05-13T19:25:01.393Z,49.80
2019-05-13T19:27:32.045Z,50.30
2019-05-13T19:30:01.902Z,51.24
2019-05-13T19:32:32.356Z,51.75
2019-05-13T19:35:02.674Z,51.90
2019-05-13T19:37:32.642Z,52.06
2019-05-13T19:40:02.175Z,52.43
2019-05-13T19:42:31.690Z,52.85
2019-05-13T19:45:01.922Z,53.01
2019-05-13T19:47:32.491Z,53.38
2019-05-13T19:50:02.492Z,53.75
2019-05-13T19:52:32.198Z,53.91
2019-05-13T19:55:01.931Z,54.43
2019-05-13T19:57:31.856Z,55.11
2019-05-13T20:00:01.571Z,54.99
2019-05-13T20:02:31.579Z,55.09
2019-05-13T20:05:01.370Z,55.56
2019-05-13T20:07:31.828Z,55.94
2019-05-13T20:10:02.761Z,55.98
2019-05-13T20:12:32.393Z,56.12
2019-05-13T20:15:02.149Z,56.54
2019-05-13T20:17:32.162Z,57.01
2019-05-13T20:20:02.197Z,57.52
2019-05-13T20:22:31.747Z,57.90
2019-05-13T20:25:01.522Z,58.02
2019-05-13T20:27:31.745Z,58.23
2019-05-13T20:30:01.808Z,58.13
2019-05-13T20:32:31.283Z,58.56
2019-05-13T20:35:02.157Z,58.78
2019-05-13T20:37:32.161Z,59.25
2019-05-13T20:40:02.438Z,59.68
2019-05-13T20:42:31.995Z,59.70
2019-05-13T20:45:02.491Z,59.95
2019-05-13T20:47:33.413Z,60.37
2019-05-13T20:50:04.485Z,60.61
2019-05-13T20:52:33.925Z,61.13
2019-05-13T20:55:03.426Z,61.02
2019-05-13T20:57:32.971Z,61.44
2019-05-13T21:00:02.595Z,62.10
2019-05-13T21:02:32.051Z,62.19
2019-05-13T21:05:01.783Z,62.73
2019-05-13T21:07:32.084Z,62.94
2019-05-13T21:10:01.606Z,63.26
2019-05-13T21:12:31.458Z,63.57
2019-05-13T21:15:01.708Z,64.14
2019-05-13T21:17:31.065Z,64.68
2019-05-13T21:20:16.013Z,65.82
2019-05-13T21:22:31.888Z,66.86
2019-05-13T21:25:02.163Z,66.88
2019-05-13T21:27:31.613Z,67.54
2019-05-13T21:30:02.545Z,67.65
2019-05-13T21:32:32.063Z,67.99
2019-05-13T21:35:01.864Z,68.27
2019-05-13T21:37:31.355Z,68.72
2019-05-13T21:40:00.892Z,69.45
2019-05-13T21:42:32.144Z,69.42
2019-05-13T21:45:01.855Z,69.69
2019-05-13T21:47:31.404Z,70.17
2019-05-13T21:50:01.070Z,70.63
2019-05-13T21:52:32.325Z,70.84
2019-05-13T21:55:02.048Z,71.12
2019-05-13T21:57:33.103Z,71.08
2019-05-13T22:00:02.688Z,71.41
2019-05-13T22:02:32.061Z,71.87
2019-05-13T22:05:01.625Z,72.19
2019-05-13T22:07:31.577Z,72.22
2019-05-13T22:10:01.969Z,72.58
2019-05-13T22:12:32.176Z,72.83
2019-05-13T22:15:01.585Z,73.08
2019-05-13T22:17:31.687Z,73.42
2019-05-13T22:20:01.875Z,73.80
2019-05-13T22:22:32.134Z,74.17
2019-05-13T22:25:02.034Z,74.55
2019-05-13T22:27:31.620Z,74.96
2019-05-13T22:30:01.377Z,75.33
2019-05-13T22:32:30.750Z,75.76
2019-05-13T22:35:01.915Z,76.20
2019-05-13T22:37:31.881Z,76.68
2019-05-13T22:40:01.547Z,77.12
2019-05-13T22:42:32.422Z,77.47
2019-05-13T22:45:02.901Z,77.85
2019-05-13T22:47:32.548Z,78.20
2019-05-13T22:50:02.365Z,78.55
2019-05-13T22:52:31.890Z,78.87
2019-05-13T22:55:02.500Z,79.41
2019-05-13T22:57:32.331Z,79.64
2019-05-13T23:00:02.231Z,79.95
2019-05-13T23:02:33.530Z,81.31
2019-05-13T23:05:03.110Z,81.37
2019-05-13T23:07:32.624Z,81.37
2019-05-13T23:10:05.884Z,81.81
2019-05-13T23:12:35.333Z,81.95
2019-05-13T23:15:05.889Z,82.21
2019-05-13T23:17:35.321Z,82.57
2019-05-13T23:20:04.752Z,82.80
2019-05-13T23:22:34.141Z,83.08
2019-05-13T23:25:03.705Z,83.43
2019-05-13T23:27:33.635Z,83.66
2019-05-13T23:30:03.092Z,84.00
2019-05-13T23:32:32.624Z,84.30
2019-05-13T23:35:02.181Z,84.54
2019-05-13T23:37:31.607Z,84.81
2019-05-13T23:40:01.442Z,85.03
2019-05-13T23:42:31.993Z,85.52
2019-05-13T23:45:01.605Z,85.65
2019-05-13T23:47:31.172Z,85.83
2019-05-13T23:50:01.996Z,86.11
2019-05-13T23:52:31.507Z,86.37
2019-05-13T23:55:02.515Z,86.63
2019-05-13T23:57:32.208Z,86.93
